createdAt,value
2022-07-30T00:00:32.371Z,33.78
2022-07-30T00:03:01.573Z,33.78
2022-07-30T00:05:30.665Z,33.55
2022-07-30T00:07:59.790Z,33.01
2022-07-30T00:10:28.841Z,33.32
2022-07-30T00:12:58.025Z,33.32
2022-07-30T00:15:27.208Z,34.09
2022-07-30T00:17:56.930Z,34.04
2022-07-30T00:20:28.102Z,33.95
2022-07-30T00:22:56.821Z,32.98
2022-07-30T00:25:25.981Z,32.98
2022-07-30T00:27:55.123Z,33.43
2022-07-30T00:30:24.311Z,32.87
2022-07-30T00:32:53.413Z,32.86
2022-07-30T00:35:22.551Z,33.02
2022-07-30T00:37:51.565Z,32.86
2022-07-30T00:40:20.644Z,33.35
2022-07-30T00:42:50.327Z,33.61
2022-07-30T00:45:20.146Z,33.68
2022-07-30T00:47:49.352Z,33.53
2022-07-30T00:50:18.350Z,32.82
2022-07-30T00:52:47.870Z,32.40
2022-07-30T00:55:17.565Z,32.40
2022-07-30T00:57:46.933Z,32.56
2022-07-30T01:00:17.926Z,32.70
2022-07-30T01:02:47.015Z,32.56
2022-07-30T01:05:16.308Z,33.09
2022-07-30T01:07:45.505Z,33.37
2022-07-30T01:10:17.002Z,33.62
2022-07-30T01:12:46.807Z,31.72
2022-07-30T01:15:17.392Z,31.72
2022-07-30T01:17:52.705Z,33.01
2022-07-30T01:20:22.195Z,32.90
2022-07-30T01:23:09.117Z,32.90
2022-07-30T01:26:01.792Z,32.77
2022-07-30T01:28:39.908Z,32.61
2022-07-30T01:31:10.420Z,32.13
2022-07-30T01:33:42.583Z,32.21
2022-07-30T01:36:14.440Z,33.03
2022-07-30T01:38:48.246Z,32.19
2022-07-30T01:41:20.415Z,32.21
2022-07-30T01:43:49.507Z,32.54
2022-07-30T01:46:20.515Z,33.74
2022-07-30T01:48:50.624Z,33.45
2022-07-30T01:51:21.257Z,33.46
2022-07-30T01:53:52.880Z,33.46
2022-07-30T01:56:25.172Z,33.85
2022-07-30T01:58:57.093Z,33.34
2022-07-30T02:01:26.368Z,33.34
2022-07-30T02:03:55.555Z,33.92
2022-07-30T02:06:27.489Z,32.62
2022-07-30T02:08:59.323Z,32.69
2022-07-30T02:11:46.016Z,32.71
2022-07-30T02:14:29.574Z,32.71
2022-07-30T02:17:02.058Z,33.28
2022-07-30T02:19:34.543Z,32.88
2022-07-30T02:22:06.855Z,32.88
2022-07-30T02:24:39.941Z,33.37
2022-07-30T02:27:11.907Z,33.37
2022-07-30T02:32:23.316Z,32.97
2022-07-30T02:34:57.025Z,32.97
2022-07-30T02:37:43.410Z,33.92
2022-07-30T02:40:00.870Z,32.89
2022-07-30T02:42:31.982Z,33.90
2022-07-30T02:45:02.640Z,33.67
2022-07-30T02:47:33.050Z,33.07
2022-07-30T02:50:03.550Z,33.41
2022-07-30T02:52:35.380Z,33.54
2022-07-30T02:55:06.264Z,34.46
2022-07-30T02:57:37.089Z,34.38
2022-07-30T03:00:08.782Z,34.38
2022-07-30T03:02:40.438Z,35.26
2022-07-30T03:05:12.963Z,35.66
2022-07-30T03:07:43.334Z,35.66
2022-07-30T03:10:15.029Z,37.39
2022-07-30T03:12:46.860Z,36.83
2022-07-30T03:15:17.129Z,36.83
2022-07-30T03:17:49.542Z,38.20
2022-07-30T03:20:21.686Z,37.24
2022-07-30T03:22:53.325Z,37.24
2022-07-30T03:25:25.288Z,37.78
2022-07-30T03:27:58.073Z,39.31
2022-07-30T03:30:28.121Z,39.31
2022-07-30T03:32:59.001Z,37.86
2022-07-30T03:35:31.273Z,38.98
2022-07-30T03:38:00.169Z,39.24
2022-07-30T03:40:31.110Z,39.42
2022-07-30T03:43:01.107Z,39.42
2022-07-30T03:45:31.415Z,38.97
2022-07-30T03:48:01.444Z,39.78
2022-07-30T03:50:32.733Z,39.81
2022-07-30T03:53:02.541Z,39.81
2022-07-30T03:55:32.139Z,39.54
2022-07-30T03:58:03.091Z,39.54
2022-07-30T04:00:32.493Z,40.19
2022-07-30T04:03:01.612Z,40.28
2022-07-30T04:05:37.521Z,39.58
2022-07-30T04:08:01.543Z,40.74
2022-07-30T04:10:30.616Z,40.74
2022-07-30T04:13:00.565Z,40.79
2022-07-30T04:16:05.541Z,40.79
2022-07-30T04:18:03.541Z,40.86
2022-07-30T04:20:38.270Z,40.61
2022-07-30T04:23:08.331Z,40.61
2022-07-30T04:25:37.856Z,41.49
2022-07-30T04:28:07.824Z,41.07
2022-07-30T04:30:37.372Z,41.07
2022-07-30T04:33:06.913Z,39.99
2022-07-30T04:35:51.368Z,41.34
2022-07-30T04:38:09.505Z,40.96
2022-07-30T04:40:38.710Z,41.97
2022-07-30T04:43:08.146Z,42.46
2022-07-30T04:45:37.357Z,43.50
2022-07-30T04:48:06.611Z,42.65
2022-07-30T04:50:38.708Z,42.65
2022-07-30T04:53:08.078Z,42.63
2022-07-30T04:55:39.461Z,40.48
2022-07-30T04:58:10.467Z,41.88
2022-07-30T05:00:41.773Z,41.88
2022-07-30T05:03:13.897Z,41.54
2022-07-30T05:05:44.205Z,40.62
2022-07-30T05:08:15.292Z,41.79
2022-07-30T05:10:45.519Z,42.25
2022-07-30T05:13:15.380Z,42.42
2022-07-30T05:15:45.964Z,42.17
2022-07-30T05:18:15.109Z,42.86
2022-07-30T05:20:44.319Z,43.49
2022-07-30T05:23:13.406Z,44.93
2022-07-30T05:25:42.496Z,43.88
2022-07-30T05:28:11.810Z,43.85
2022-07-30T05:30:42.050Z,42.56
2022-07-30T05:33:15.560Z,43.78
2022-07-30T05:35:42.667Z,44.01
2022-07-30T05:38:11.904Z,44.01
2022-07-30T05:40:40.960Z,46.53
2022-07-30T05:43:10.315Z,43.58
2022-07-30T05:45:39.465Z,44.19
2022-07-30T05:48:09.118Z,44.34
2022-07-30T05:50:38.272Z,44.34
2022-07-30T05:53:08.107Z,42.96
2022-07-30T05:55:37.328Z,43.35
2022-07-30T05:58:06.373Z,43.35
2022-07-30T06:00:35.982Z,46.28
2022-07-30T06:03:05.625Z,44.76
2022-07-30T06:05:36.153Z,44.76
2022-07-30T06:08:05.786Z,45.77
2022-07-30T06:10:35.788Z,46.13
2022-07-30T06:13:04.945Z,46.11
2022-07-30T06:15:34.067Z,46.31
2022-07-30T06:18:03.240Z,46.31
2022-07-30T06:20:32.641Z,45.76
2022-07-30T06:23:01.750Z,44.02
2022-07-30T06:25:30.836Z,44.02
2022-07-30T06:28:15.444Z,42.45
2022-07-30T06:30:31.135Z,42.31
2022-07-30T06:33:01.294Z,42.31
2022-07-30T06:35:30.597Z,40.82
2022-07-30T06:38:06.917Z,41.13
2022-07-30T06:40:30.656Z,41.13
2022-07-30T06:42:59.821Z,41.81
2022-07-30T06:45:29.024Z,40.91
2022-07-30T06:48:01.805Z,41.02
2022-07-30T06:50:31.033Z,41.02
2022-07-30T06:53:00.201Z,41.28
2022-07-30T06:55:29.297Z,45.39
2022-07-30T06:57:58.604Z,45.39
2022-07-30T07:00:27.803Z,43.84
2022-07-30T07:02:57.103Z,43.63
2022-07-30T07:05:27.934Z,44.31
2022-07-30T07:07:59.605Z,43.90
2022-07-30T07:10:28.372Z,43.90
2022-07-30T07:12:57.777Z,45.28
2022-07-30T07:15:36.166Z,45.71
2022-07-30T07:17:59.054Z,44.58
2022-07-30T07:20:29.769Z,44.58
2022-07-30T07:22:59.008Z,44.71
2022-07-30T07:25:28.716Z,44.62
2022-07-30T07:28:12.036Z,43.52
2022-07-30T07:30:29.469Z,43.52
2022-07-30T07:32:58.672Z,42.99
2022-07-30T07:35:28.215Z,44.48
2022-07-30T07:37:57.545Z,42.63
2022-07-30T07:40:27.053Z,42.63
2022-07-30T07:42:56.168Z,42.79
2022-07-30T07:45:25.375Z,43.52
2022-07-30T07:47:54.543Z,41.97
2022-07-30T07:50:23.942Z,42.33
2022-07-30T07:52:52.923Z,42.33
2022-07-30T07:55:23.626Z,42.33
2022-07-30T07:57:54.076Z,43.06
2022-07-30T08:00:23.469Z,43.75
2022-07-30T08:02:52.756Z,44.36
2022-07-30T08:05:22.002Z,45.19
2022-07-30T08:07:51.431Z,43.53
2022-07-30T08:10:20.617Z,45.68
2022-07-30T08:12:49.696Z,46.20
2022-07-30T08:15:21.879Z,44.66
2022-07-30T08:17:49.877Z,43.58
2022-07-30T08:20:19.068Z,46.23
2022-07-30T08:22:48.337Z,45.42
2022-07-30T08:25:21.833Z,44.00
2022-07-30T08:27:50.830Z,44.00
2022-07-30T08:30:22.412Z,46.35
2022-07-30T08:32:51.692Z,45.09
2022-07-30T08:35:21.493Z,45.09
2022-07-30T08:37:50.886Z,43.50
2022-07-30T08:40:21.880Z,46.05
2022-07-30T08:42:51.024Z,46.25
2022-07-30T08:45:20.814Z,46.80
2022-07-30T08:47:53.719Z,46.80
2022-07-30T08:50:23.495Z,47.76
2022-07-30T08:52:55.974Z,46.99
2022-07-30T08:55:26.282Z,46.99
2022-07-30T08:57:56.074Z,45.34
2022-07-30T09:00:25.958Z,47.14
2022-07-30T09:02:57.646Z,44.76
2022-07-30T09:05:26.815Z,44.76
2022-07-30T09:07:56.022Z,45.37
2022-07-30T09:10:26.252Z,45.03
2022-07-30T09:12:55.433Z,45.49
2022-07-30T09:15:25.857Z,43.91
2022-07-30T09:18:01.002Z,43.91
2022-07-30T09:20:32.680Z,44.52
2022-07-30T09:23:04.033Z,45.52
2022-07-30T09:25:41.905Z,44.79
2022-07-30T09:28:16.314Z,43.75
2022-07-30T09:30:57.764Z,43.75
2022-07-30T09:33:38.472Z,45.01
2022-07-30T09:36:11.225Z,45.87
2022-07-30T09:38:49.565Z,45.83
2022-07-30T09:41:38.355Z,46.27
2022-07-30T09:43:54.112Z,42.78
2022-07-30T09:46:28.839Z,43.36
2022-07-30T09:49:00.792Z,43.36
2022-07-30T09:51:54.405Z,43.59
2022-07-30T09:54:11.520Z,43.59
2022-07-30T09:56:53.702Z,43.65
2022-07-30T09:59:34.730Z,43.86
2022-07-30T10:02:04.029Z,43.27
2022-07-30T10:04:34.726Z,44.67
2022-07-30T10:07:04.442Z,44.53
2022-07-30T10:09:38.420Z,44.53
2022-07-30T10:12:11.901Z,43.70
2022-07-30T10:14:47.668Z,43.57
2022-07-30T10:17:17.427Z,42.68
2022-07-30T10:19:47.645Z,42.68
2022-07-30T10:22:19.044Z,42.28
2022-07-30T10:24:49.089Z,42.28
2022-07-30T10:27:18.495Z,42.26
2022-07-30T10:29:48.686Z,42.26
2022-07-30T10:32:18.422Z,42.21
2022-07-30T10:34:49.411Z,42.21
2022-07-30T10:37:19.961Z,43.36
2022-07-30T10:39:58.089Z,42.64
2022-07-30T10:42:55.848Z,42.04
2022-07-30T10:45:30.473Z,42.04
2022-07-30T10:48:00.439Z,42.00
2022-07-30T10:50:30.200Z,42.00
2022-07-30T10:53:03.612Z,42.94
2022-07-30T10:55:39.252Z,42.20
2022-07-30T10:58:09.905Z,41.25
2022-07-30T11:00:54.233Z,41.95
2022-07-30T11:03:40.265Z,41.81
2022-07-30T11:06:24.197Z,40.79
2022-07-30T11:08:50.903Z,40.79
2022-07-30T11:11:59.354Z,41.97
2022-07-30T11:14:02.638Z,41.68
2022-07-30T11:16:37.549Z,43.04
2022-07-30T11:19:55.788Z,42.91
2022-07-30T11:21:42.390Z,42.91
2022-07-30T11:24:45.435Z,41.89
2022-07-30T11:27:36.830Z,42.35
2022-07-30T11:30:09.132Z,41.47
2022-07-30T11:32:38.412Z,41.33
2022-07-30T11:35:16.315Z,41.33
2022-07-30T11:38:09.271Z,40.93
2022-07-30T11:40:50.007Z,40.93
2022-07-30T11:43:35.611Z,41.88
2022-07-30T11:46:10.340Z,41.89
2022-07-30T11:48:44.866Z,41.89
2022-07-30T11:51:14.033Z,40.95
2022-07-30T11:53:45.018Z,40.95
2022-07-30T11:56:16.633Z,42.85
2022-07-30T11:58:45.858Z,42.07
2022-07-30T12:01:18.147Z,42.07
2022-07-30T12:03:48.527Z,41.57
2022-07-30T12:06:19.684Z,41.04
2022-07-30T12:08:55.063Z,41.04
2022-07-30T12:11:26.065Z,41.13
2022-07-30T12:14:02.042Z,42.22
2022-07-30T12:16:33.260Z,41.98
2022-07-30T12:19:09.442Z,40.94
2022-07-30T12:21:38.263Z,41.03
2022-07-30T12:24:10.061Z,41.76
2022-07-30T12:26:39.678Z,40.87
2022-07-30T12:29:13.109Z,40.87
2022-07-30T12:31:43.194Z,41.71
2022-07-30T12:34:23.775Z,41.69
2022-07-30T12:36:53.392Z,41.26
2022-07-30T12:39:25.336Z,41.89
2022-07-30T12:41:59.340Z,40.69
2022-07-30T12:44:42.658Z,40.69
2022-07-30T12:47:27.448Z,40.86
2022-07-30T12:50:00.694Z,40.12
2022-07-30T12:52:32.371Z,40.64
2022-07-30T12:55:11.571Z,40.52
2022-07-30T12:58:08.741Z,41.34
2022-07-30T13:00:51.280Z,41.34
2022-07-30T13:03:26.519Z,40.20
2022-07-30T13:05:57.493Z,40.20
2022-07-30T13:08:49.012Z,40.94
2022-07-30T13:11:19.527Z,40.94
2022-07-30T13:13:49.535Z,41.32
2022-07-30T13:16:20.149Z,42.52
2022-07-30T13:18:49.674Z,42.64
2022-07-30T13:21:18.969Z,41.23
2022-07-30T13:23:48.163Z,41.45
2022-07-30T13:26:17.266Z,41.18
2022-07-30T13:28:47.432Z,41.17
2022-07-30T13:31:16.829Z,41.17
2022-07-30T13:33:46.939Z,42.20
2022-07-30T13:36:16.304Z,40.88
2022-07-30T13:38:45.916Z,42.42
2022-07-30T13:41:18.338Z,41.03
2022-07-30T13:43:48.840Z,41.03
2022-07-30T13:46:18.634Z,41.68
2022-07-30T13:48:48.117Z,40.80
2022-07-30T13:51:17.239Z,41.35
2022-07-30T13:53:47.760Z,42.27
2022-07-30T13:56:19.859Z,42.27
2022-07-30T13:58:47.932Z,40.40
2022-07-30T14:01:18.143Z,40.40
2022-07-30T14:03:50.568Z,41.18
2022-07-30T14:06:22.643Z,41.24
2022-07-30T14:08:51.754Z,40.12
2022-07-30T14:11:21.714Z,40.88
2022-07-30T14:13:50.869Z,40.88
2022-07-30T14:16:42.851Z,41.13
2022-07-30T14:18:51.010Z,40.65
2022-07-30T14:21:20.207Z,41.04
2022-07-30T14:23:49.274Z,40.62
2022-07-30T14:26:18.839Z,40.51
2022-07-30T14:28:48.032Z,40.72
2022-07-30T14:31:17.335Z,40.80
2022-07-30T14:33:46.503Z,40.80
2022-07-30T14:36:16.041Z,40.33
2022-07-30T14:38:45.200Z,40.60
2022-07-30T14:41:14.304Z,39.93
2022-07-30T14:43:43.515Z,39.91
2022-07-30T14:46:12.696Z,40.69
2022-07-30T14:48:41.945Z,40.69
2022-07-30T14:51:17.707Z,40.74
2022-07-30T14:53:42.155Z,40.17
2022-07-30T14:56:13.895Z,40.15
2022-07-30T14:58:43.311Z,39.27
2022-07-30T15:01:14.925Z,39.27
2022-07-30T15:03:43.129Z,41.90
2022-07-30T15:06:13.082Z,41.90
2022-07-30T15:08:42.823Z,40.59
2022-07-30T15:11:11.903Z,40.47
2022-07-30T15:13:49.960Z,40.47
2022-07-30T15:16:12.086Z,40.08
2022-07-30T15:18:41.362Z,40.08
2022-07-30T15:21:11.021Z,40.10
2022-07-30T15:23:42.938Z,40.10
2022-07-30T15:26:13.524Z,40.13
2022-07-30T15:28:42.682Z,40.70
2022-07-30T15:31:11.777Z,40.70
2022-07-30T15:33:45.286Z,40.09
2022-07-30T15:36:14.500Z,40.09
2022-07-30T15:38:43.982Z,40.23
2022-07-30T15:41:14.818Z,41.16
2022-07-30T15:43:44.017Z,41.23
2022-07-30T15:46:13.316Z,41.23
2022-07-30T15:48:42.476Z,40.31
2022-07-30T15:51:12.362Z,39.06
2022-07-30T15:53:41.564Z,39.06
2022-07-30T15:56:11.052Z,39.12
2022-07-30T15:58:43.411Z,39.58
2022-07-30T16:01:11.101Z,39.58
2022-07-30T16:03:40.153Z,40.25
2022-07-30T16:06:09.383Z,40.25
2022-07-30T16:08:38.549Z,40.39
2022-07-30T16:11:07.642Z,40.37
2022-07-30T16:13:38.479Z,39.37
2022-07-30T16:16:07.711Z,39.37
2022-07-30T16:18:36.984Z,40.38
2022-07-30T16:21:06.386Z,39.84
2022-07-30T16:23:36.759Z,40.27
2022-07-30T16:26:06.676Z,39.39
2022-07-30T16:28:35.719Z,39.48
2022-07-30T16:31:06.155Z,38.72
2022-07-30T16:33:35.342Z,38.98
2022-07-30T16:36:04.948Z,39.58
2022-07-30T16:38:34.051Z,39.35
2022-07-30T16:41:03.148Z,38.95
2022-07-30T16:43:32.442Z,38.95
2022-07-30T16:46:02.259Z,39.49
2022-07-30T16:48:33.095Z,38.83
2022-07-30T16:51:02.191Z,39.25
2022-07-30T16:53:31.933Z,39.29
2022-07-30T16:56:01.300Z,39.29
2022-07-30T16:58:30.994Z,38.92
2022-07-30T17:01:00.495Z,39.15
2022-07-30T17:03:29.741Z,38.50
2022-07-30T17:05:58.910Z,39.13
2022-07-30T17:08:28.157Z,39.13
2022-07-30T17:10:57.332Z,38.65
2022-07-30T17:13:27.256Z,38.83
2022-07-30T17:15:56.425Z,38.66
2022-07-30T17:18:25.649Z,38.66
2022-07-30T17:20:55.022Z,38.84
2022-07-30T17:23:24.222Z,38.62
2022-07-30T17:25:53.347Z,38.76
2022-07-30T17:28:24.351Z,38.23
2022-07-30T17:30:53.768Z,38.00
2022-07-30T17:33:22.955Z,38.22
2022-07-30T17:35:52.175Z,38.33
2022-07-30T17:38:21.501Z,38.53
2022-07-30T17:40:50.657Z,38.53
2022-07-30T17:43:19.848Z,37.75
2022-07-30T17:45:49.076Z,38.01
2022-07-30T17:48:19.116Z,38.01
2022-07-30T17:50:48.467Z,39.03
2022-07-30T17:53:17.671Z,36.95
2022-07-30T17:55:56.990Z,36.95
2022-07-30T17:58:17.908Z,37.95
2022-07-30T18:00:47.068Z,37.69
2022-07-30T18:03:16.330Z,37.57
2022-07-30T18:05:45.502Z,37.57
2022-07-30T18:08:14.702Z,37.76
2022-07-30T18:10:43.994Z,38.19
2022-07-30T18:13:26.044Z,38.19
2022-07-30T18:15:45.373Z,37.92
2022-07-30T18:18:14.458Z,37.74
2022-07-30T18:20:48.502Z,37.22
2022-07-30T18:23:16.246Z,37.22
2022-07-30T18:25:51.398Z,36.97
2022-07-30T18:28:16.784Z,36.97
2022-07-30T18:30:46.513Z,37.08
2022-07-30T18:33:16.539Z,36.88
2022-07-30T18:35:46.094Z,36.56
2022-07-30T18:38:15.452Z,36.39
2022-07-30T18:40:45.335Z,36.39
2022-07-30T18:43:14.555Z,37.34
2022-07-30T18:45:45.932Z,37.34
2022-07-30T18:48:15.097Z,36.58
2022-07-30T18:50:44.624Z,36.96
2022-07-30T18:53:15.404Z,36.30
2022-07-30T18:55:45.491Z,36.43
2022-07-30T18:58:14.639Z,36.51
2022-07-30T19:00:44.404Z,36.51
2022-07-30T19:03:18.752Z,36.74
2022-07-30T19:05:45.506Z,36.14
2022-07-30T19:08:14.742Z,36.60
2022-07-30T19:10:44.214Z,36.84
2022-07-30T19:13:13.511Z,37.13
2022-07-30T19:15:42.635Z,36.24
2022-07-30T19:18:11.911Z,36.64
2022-07-30T19:20:41.046Z,37.08
2022-07-30T19:23:10.336Z,36.73
2022-07-30T19:25:39.717Z,36.78
2022-07-30T19:28:08.922Z,36.78
2022-07-30T19:30:38.118Z,36.09
2022-07-30T19:33:14.761Z,37.10
2022-07-30T19:35:41.210Z,37.26
2022-07-30T19:38:11.888Z,36.94
2022-07-30T19:40:42.366Z,36.89
2022-07-30T19:43:12.511Z,37.02
2022-07-30T19:45:47.378Z,36.29
2022-07-30T19:48:13.679Z,36.29
2022-07-30T19:50:42.845Z,37.50
2022-07-30T19:53:12.381Z,37.18
2022-07-30T19:55:41.759Z,36.82
2022-07-30T19:58:16.020Z,36.54
2022-07-30T20:00:43.939Z,36.53
2022-07-30T20:03:14.830Z,36.53
2022-07-30T20:05:54.872Z,36.63
2022-07-30T20:08:16.039Z,36.33
2022-07-30T20:10:46.263Z,36.01
2022-07-30T20:13:15.768Z,36.94
2022-07-30T20:15:46.735Z,36.53
2022-07-30T20:18:15.940Z,36.53
2022-07-30T20:20:46.643Z,35.64
2022-07-30T20:23:17.156Z,35.19
2022-07-30T20:25:47.214Z,35.78
2022-07-30T20:28:17.816Z,35.19
2022-07-30T20:30:47.832Z,34.80
2022-07-30T20:33:17.142Z,34.73
2022-07-30T20:35:48.006Z,35.34
2022-07-30T20:38:17.471Z,35.34
2022-07-30T20:40:47.695Z,34.60
2022-07-30T20:43:18.564Z,34.67
2022-07-30T20:45:48.703Z,34.75
2022-07-30T20:48:25.505Z,34.29
2022-07-30T20:50:49.611Z,34.41
2022-07-30T20:53:20.836Z,34.41
2022-07-30T20:55:50.054Z,34.45
2022-07-30T20:58:20.786Z,35.13
2022-07-30T21:00:51.939Z,34.58
2022-07-30T21:03:22.993Z,34.58
2022-07-30T21:05:52.836Z,34.81
2022-07-30T21:08:25.173Z,33.88
2022-07-30T21:10:55.473Z,34.51
2022-07-30T21:13:26.175Z,33.79
2022-07-30T21:16:02.659Z,33.81
2022-07-30T21:18:26.522Z,35.08
2022-07-30T21:20:56.896Z,34.98
2022-07-30T21:23:27.213Z,34.78
2022-07-30T21:26:01.445Z,35.28
2022-07-30T21:28:27.863Z,34.91
2022-07-30T21:30:57.654Z,34.88
2022-07-30T21:33:31.574Z,34.49
2022-07-30T21:35:57.803Z,35.24
2022-07-30T21:38:32.021Z,35.24
2022-07-30T21:41:03.359Z,34.55
2022-07-30T21:43:34.223Z,35.11
2022-07-30T21:46:03.682Z,35.11
2022-07-30T21:48:34.444Z,34.70
2022-07-30T21:51:03.542Z,34.53
2022-07-30T21:53:45.927Z,35.89
2022-07-30T21:56:03.978Z,35.18
2022-07-30T21:58:34.853Z,34.80
2022-07-30T22:01:16.826Z,35.34
2022-07-30T22:04:01.083Z,35.54
2022-07-30T22:06:12.960Z,34.95
2022-07-30T22:08:42.549Z,34.94
2022-07-30T22:11:13.405Z,34.88
2022-07-30T22:13:51.241Z,35.28
2022-07-30T22:16:15.815Z,35.28
2022-07-30T22:18:44.989Z,35.26
2022-07-30T22:21:14.536Z,35.04
2022-07-30T22:23:54.883Z,35.17
2022-07-30T22:26:14.633Z,35.33
2022-07-30T22:28:43.830Z,35.11
2022-07-30T22:31:15.947Z,35.18
2022-07-30T22:33:45.196Z,34.80
2022-07-30T22:36:14.306Z,35.14
2022-07-30T22:38:44.919Z,35.13
2022-07-30T22:41:15.760Z,33.80
2022-07-30T22:43:44.876Z,33.80
2022-07-30T22:46:14.968Z,33.47
2022-07-30T22:48:45.030Z,34.06
2022-07-30T22:51:14.491Z,34.42
2022-07-30T22:54:03.345Z,34.46
2022-07-30T22:56:15.752Z,34.29
2022-07-30T22:58:45.371Z,34.36
2022-07-30T23:01:16.095Z,34.14
2022-07-30T23:03:45.326Z,34.14
2022-07-30T23:06:16.376Z,34.63
2022-07-30T23:08:45.643Z,34.63
2022-07-30T23:11:14.951Z,34.54
2022-07-30T23:13:44.157Z,34.15
2022-07-30T23:16:13.345Z,35.01
2022-07-30T23:18:42.634Z,34.28
2022-07-30T23:21:11.833Z,34.76
2022-07-30T23:23:41.037Z,34.42
2022-07-30T23:26:10.645Z,34.90
2022-07-30T23:28:39.944Z,33.94
2022-07-30T23:31:09.247Z,34.37
2022-07-30T23:33:38.442Z,34.53
2022-07-30T23:36:08.266Z,34.14
2022-07-30T23:38:38.493Z,33.90
2022-07-30T23:41:07.779Z,34.07
2022-07-30T23:43:37.649Z,33.86
2022-07-30T23:46:09.769Z,34.12
2022-07-30T23:48:38.054Z,34.17
2022-07-30T23:51:07.232Z,34.55
2022-07-30T23:53:36.429Z,34.61
2022-07-30T23:56:06.168Z,33.49
2022-07-30T23:58:35.565Z,34.53
